Time;durP1;ratioP1;P1;durP2;ratioP2;P2;SDS_P1;SDS_P2;PMS_P1;PMS_P2;Temp;Humidity;BMP_temperature;BMP_pressure;BME280_temperature;BME280_humidity;BME280_pressure;Samples;Min_cycle;Max_cycle;Signal;HPM_P1;HPM_P2
2021/11/16 00:01:01;;;;;;;;;;;;;;;4.81;56.55;102573.55;117522;1183;21857;-56
2021/11/16 00:03:29;;;;;;;;;;;;;;;4.74;56.75;102574.64;117578;1186;23005;-56
2021/11/16 00:05:57;;;;;;;;;;;;;;;4.67;56.81;102570.13;117505;1183;22815;-56
2021/11/16 00:08:26;;;;;;;;;;;;;;;4.60;56.63;102568.79;117401;1182;23445;-57
2021/11/16 00:10:55;;;;;;;;;;;;;;;4.54;56.97;102571.27;117463;1186;23465;-57
2021/11/16 00:13:23;;;;;;;;;;;;;;;4.49;56.64;102570.16;117425;1183;21847;-56
2021/11/16 00:15:51;;;;;;;;;;;;;;;4.42;56.74;102565.85;117416;1186;21839;-56
2021/11/16 00:18:25;;;;;;;;;;;;;;;4.38;56.84;102563.72;117458;1186;21864;-55
2021/11/16 00:20:53;;;;;;;;;;;;;;;4.35;56.88;102558.36;117450;1186;23445;-57
2021/11/16 00:23:22;;;;;;;;;;;;;;;4.30;56.73;102556.56;117389;1183;21848;-55
2021/11/16 00:25:51;;;;;;;;;;;;;;;4.30;56.94;102555.52;117506;1186;21879;-55
2021/11/16 00:28:20;;;;;;;;;;;;;;;4.29;56.86;102555.81;117540;1183;23547;-55
2021/11/16 00:30:48;;;;;;;;;;;;;;;4.25;56.74;102553.73;117398;1185;21833;-56
2021/11/16 00:33:16;;;;;;;;;;;;;;;4.18;56.93;102552.34;117535;1186;21845;-56
2021/11/16 00:35:45;;;;;;;;;;;;;;;4.12;56.70;102557.48;117529;1183;22751;-56
2021/11/16 00:38:13;;;;;;;;;;;;;;;4.08;56.90;102556.55;117528;1186;21838;-56
2021/11/16 00:40:41;;;;;;;;;;;;;;;4.03;56.75;102554.42;117339;1185;21838;-56
2021/11/16 00:43:10;;;;;;;;;;;;;;;4.01;56.63;102556.88;117617;1184;21861;-55
2021/11/16 00:45:40;;;;;;;;;;;;;;;3.97;56.63;102553.05;117383;1185;23423;-57
2021/11/16 00:48:08;;;;;;;;;;;;;;;3.95;56.60;102551.22;117448;1185;22787;-57
2021/11/16 00:50:37;;;;;;;;;;;;;;;3.90;56.69;102546.64;117355;1186;23449;-55
2021/11/16 00:53:06;;;;;;;;;;;;;;;3.87;56.72;102541.96;117419;1185;21859;-57
2021/11/16 00:55:36;;;;;;;;;;;;;;;3.82;56.85;102544.30;117344;1185;23426;-56
2021/11/16 00:58:05;;;;;;;;;;;;;;;3.75;56.86;102538.61;117378;1184;23448;-57
2021/11/16 01:00:33;;;;;;;;;;;;;;;3.70;56.78;102538.55;117358;1183;23561;-57
2021/11/16 01:03:01;;;;;;;;;;;;;;;3.67;56.62;102534.57;117362;1185;24125;-57
2021/11/16 01:05:30;;;;;;;;;;;;;;;3.63;56.77;102531.40;117430;1185;22967;-57
2021/11/16 01:07:59;;;;;;;;;;;;;;;3.60;56.81;102530.04;117391;1176;21838;-56
2021/11/16 01:10:27;;;;;;;;;;;;;;;3.56;56.85;102535.94;117357;1183;23433;-57
2021/11/16 01:12:56;;;;;;;;;;;;;;;3.55;56.79;102536.87;117357;1183;22931;-57
2021/11/16 01:15:24;;;;;;;;;;;;;;;3.53;56.80;102542.52;117366;1186;21973;-55
2021/11/16 01:17:52;;;;;;;;;;;;;;;3.52;56.86;102548.20;117362;1186;23425;-56
2021/11/16 01:20:21;;;;;;;;;;;;;;;3.49;56.74;102545.29;117303;1185;21855;-58
2021/11/16 01:22:51;;;;;;;;;;;;;;;3.47;56.84;102538.41;117432;1185;23501;-56
2021/11/16 01:25:20;;;;;;;;;;;;;;;3.46;56.73;102537.81;117300;1182;23431;-55
2021/11/16 01:27:48;;;;;;;;;;;;;;;3.45;56.78;102536.38;117382;1185;24142;-55
2021/11/16 01:30:18;;;;;;;;;;;;;;;3.43;56.79;102532.96;117406;1185;23425;-57
2021/11/16 01:32:50;;;;;;;;;;;;;;;3.40;56.74;102537.53;117425;1185;22988;-57
2021/11/16 01:35:18;;;;;;;;;;;;;;;3.38;56.80;102541.60;117392;1185;22322;-56
2021/11/16 01:37:46;;;;;;;;;;;;;;;3.38;56.81;102540.21;117323;1185;22979;-55
2021/11/16 01:40:16;;;;;;;;;;;;;;;3.38;56.77;102540.50;117380;1182;23559;-58
2021/11/16 01:42:45;;;;;;;;;;;;;;;3.36;56.82;102536.77;117472;1186;24153;-55
2021/11/16 01:45:13;;;;;;;;;;;;;;;3.36;56.86;102533.69;117358;1185;22179;-56
2021/11/16 01:47:43;;;;;;;;;;;;;;;3.39;56.90;102534.00;117379;1183;23426;-55
2021/11/16 01:50:12;;;;;;;;;;;;;;;3.43;56.92;102541.32;117423;1185;23537;-56
2021/11/16 01:52:41;;;;;;;;;;;;;;;3.47;56.99;102537.69;117413;1185;21843;-57
2021/11/16 01:55:09;;;;;;;;;;;;;;;3.51;57.06;102533.06;117435;1183;22988;-56
2021/11/16 01:57:38;;;;;;;;;;;;;;;3.55;56.93;102530.13;117434;1182;23532;-56
2021/11/16 02:00:08;;;;;;;;;;;;;;;3.60;56.94;102533.48;117464;1182;23536;-58
2021/11/16 02:02:36;;;;;;;;;;;;;;;3.63;57.07;102538.34;117384;1185;22915;-55
2021/11/16 02:05:05;;;;;;;;;;;;;;;3.63;56.93;102539.58;117421;1185;21845;-56
2021/11/16 02:07:38;;;;;;;;;;;;;;;3.60;56.90;102535.42;117453;1186;23449;-57
2021/11/16 02:10:06;;;;;;;;;;;;;;;3.57;56.89;102535.23;117445;1185;21834;-57
2021/11/16 02:12:34;;;;;;;;;;;;;;;3.52;56.81;102536.06;117476;1185;21829;-58
2021/11/16 02:15:04;;;;;;;;;;;;;;;3.50;56.88;102533.15;117426;1186;21885;-58
2021/11/16 02:17:33;;;;;;;;;;;;;;;3.48;56.78;102540.16;117303;1184;23447;-57
2021/11/16 02:20:01;;;;;;;;;;;;;;;3.44;56.78;102541.38;117424;1183;21848;-58
2021/11/16 02:22:31;;;;;;;;;;;;;;;3.40;56.71;102541.66;117343;1186;21864;-57
2021/11/16 02:24:59;;;;;;;;;;;;;;;3.36;56.76;102541.48;117397;1184;21876;-58
2021/11/16 02:27:27;;;;;;;;;;;;;;;3.35;56.68;102547.14;117326;1185;23426;-57
2021/11/16 02:29:59;;;;;;;;;;;;;;;3.27;56.64;102549.90;117346;1183;23455;-57
2021/11/16 02:32:27;;;;;;;;;;;;;;;3.25;56.74;102558.10;117503;1183;23422;-57
2021/11/16 02:34:56;;;;;;;;;;;;;;;3.22;56.93;102561.75;117474;1183;22821;-56
2021/11/16 02:37:24;;;;;;;;;;;;;;;3.20;56.82;102562.98;117436;1183;23426;-55
2021/11/16 02:39:52;;;;;;;;;;;;;;;3.17;56.95;102565.45;117367;1183;23550;-56
2021/11/16 02:42:20;;;;;;;;;;;;;;;3.14;56.67;102567.21;117433;1186;23528;-55
2021/11/16 02:44:49;;;;;;;;;;;;;;;3.11;56.64;102562.22;117473;1185;21839;-55
2021/11/16 02:47:17;;;;;;;;;;;;;;;3.12;56.66;102567.80;117406;1176;21839;-55
2021/11/16 02:49:45;;;;;;;;;;;;;;;3.07;56.90;102569.49;117484;1183;24132;-57
2021/11/16 02:52:13;;;;;;;;;;;;;;;3.08;56.83;102571.58;117528;1182;21973;-56
2021/11/16 02:54:41;;;;;;;;;;;;;;;3.09;56.67;102565.37;117421;1177;21839;-58
2021/11/16 02:57:10;;;;;;;;;;;;;;;3.10;57.02;102561.98;117399;1183;22081;-56
2021/11/16 02:59:39;;;;;;;;;;;;;;;3.09;56.76;102561.58;117465;1184;21848;-57
2021/11/16 03:02:10;;;;;;;;;;;;;;;3.05;56.73;102552.35;117424;1186;23439;-56
2021/11/16 03:04:44;;;;;;;;;;;;;;;3.00;56.83;102549.48;117388;1186;23446;-57
2021/11/16 03:07:32;;;;;;;;;;;;;;;2.97;56.68;102552.28;117417;1176;23432;-57
2021/11/16 03:10:01;;;;;;;;;;;;;;;2.94;56.83;102554.55;117569;1183;22690;-57
2021/11/16 03:12:29;;;;;;;;;;;;;;;3.10;56.57;102545.83;117562;1185;21849;-55
2021/11/16 03:14:57;;;;;;;;;;;;;;;3.17;56.38;102547.29;117570;1182;21835;-57
2021/11/16 03:17:26;;;;;;;;;;;;;;;3.21;56.30;102554.79;117559;1184;21920;-57
2021/11/16 03:19:54;;;;;;;;;;;;;;;3.22;56.02;102555.84;117377;1184;21829;-57
2021/11/16 03:22:25;;;;;;;;;;;;;;;3.20;56.16;102555.26;117565;1182;22271;-57
2021/11/16 03:24:57;;;;;;;;;;;;;;;3.20;56.23;102551.23;117582;1182;22816;-57
2021/11/16 03:27:31;;;;;;;;;;;;;;;3.19;56.14;102548.04;117476;1184;22957;-55
2021/11/16 03:29:59;;;;;;;;;;;;;;;3.17;56.00;102543.07;117694;1185;21849;-56
2021/11/16 03:32:34;;;;;;;;;;;;;;;3.17;55.99;102544.98;117495;1184;21845;-56
2021/11/16 03:35:03;;;;;;;;;;;;;;;3.17;56.13;102543.10;117528;1183;23443;-55
2021/11/16 03:37:38;;;;;;;;;;;;;;;3.15;55.76;102542.64;117489;1182;22912;-57
2021/11/16 03:40:07;;;;;;;;;;;;;;;3.12;55.81;102547.16;117502;1182;21835;-57
2021/11/16 03:42:36;;;;;;;;;;;;;;;3.13;55.91;102548.42;117475;1183;22916;-57
2021/11/16 03:45:04;;;;;;;;;;;;;;;3.12;55.71;102550.46;117470;1186;21963;-57
2021/11/16 03:47:33;;;;;;;;;;;;;;;3.08;55.77;102548.32;117498;1183;21838;-57
2021/11/16 03:50:03;;;;;;;;;;;;;;;3.07;55.75;102554.02;117527;1183;23445;-54
2021/11/16 03:52:38;;;;;;;;;;;;;;;3.07;55.72;102556.59;117423;1183;21833;-57
2021/11/16 03:55:07;;;;;;;;;;;;;;;3.05;55.65;102558.09;117389;1182;23419;-58
2021/11/16 03:57:35;;;;;;;;;;;;;;;3.03;55.53;102560.36;117447;1183;21849;-57
2021/11/16 04:00:07;;;;;;;;;;;;;;;3.03;55.67;102562.64;117452;1185;21798;-56
2021/11/16 04:02:37;;;;;;;;;;;;;;;3.09;55.96;102560.37;117504;1183;21848;-55
2021/11/16 04:05:07;;;;;;;;;;;;;;;3.14;56.00;102559.77;117436;1186;21842;-56
2021/11/16 04:07:36;;;;;;;;;;;;;;;3.14;56.02;102558.40;117313;1185;21844;-55
2021/11/16 04:10:14;;;;;;;;;;;;;;;3.17;56.01;102560.95;117385;1186;23544;-58
2021/11/16 04:13:08;;;;;;;;;;;;;;;2.94;56.40;102567.92;117536;1183;21844;-56
2021/11/16 04:16:24;;;;;;;;;;;;;;;2.86;56.65;102573.19;117352;1186;22174;-55
2021/11/16 04:19:19;;;;;;;;;;;;;;;2.85;56.67;102576.94;117535;1182;23440;-57
2021/11/16 04:22:14;;;;;;;;;;;;;;;2.83;56.70;102580.30;117137;1188;23036;-58
2021/11/16 04:25:02;;;;;;;;;;;;;;;2.79;56.54;102578.88;117042;1188;21840;-55
2021/11/16 04:28:03;;;;;;;;;;;;;;;2.70;56.49;102579.60;117094;1186;23493;-57
2021/11/16 04:30:54;;;;;;;;;;;;;;;2.63;56.61;102582.36;116971;1188;22098;-56
2021/11/16 04:34:12;;;;;;;;;;;;;;;2.62;56.64;102575.89;116966;1187;22923;-57
2021/11/16 04:37:42;;;;;;;;;;;;;;;2.73;56.45;102576.11;116918;1188;21887;-55
2021/11/16 04:40:21;;;;;;;;;;;;;;;2.64;56.54;102580.14;116922;1189;23621;-58
2021/11/16 04:43:11;;;;;;;;;;;;;;;2.63;56.64;102581.83;117093;1188;22623;-55
2021/11/16 04:46:09;;;;;;;;;;;;;;;2.62;56.48;102591.09;117193;1185;22908;-55
2021/11/16 04:48:56;;;;;;;;;;;;;;;2.56;56.45;102596.00;117209;1187;21841;-55
2021/11/16 04:51:45;;;;;;;;;;;;;;;2.49;56.63;102601.48;117122;1186;24123;-57
2021/11/16 05:08:07;;;;;;;;;;;;;;;2.32;56.52;102621.34;117225;1178;21853;-69
2021/11/16 05:10:46;;;;;;;;;;;;;;;2.28;56.45;102629.77;117043;1187;22928;-70
2021/11/16 05:13:25;;;;;;;;;;;;;;;2.21;56.30;102627.30;117217;1188;23459;-69
2021/11/16 05:16:06;;;;;;;;;;;;;;;2.14;56.48;102633.48;116899;1186;21842;-70
2021/11/16 05:42:21;;;;;;;;;;;;;;;2.93;56.53;102639.83;116944;1188;22448;-72
2021/11/16 05:45:03;;;;;;;;;;;;;;;3.01;56.39;102639.21;116957;1188;24146;-71
2021/11/16 05:47:38;;;;;;;;;;;;;;;2.82;56.79;102642.14;116901;1189;22719;-70
2021/11/16 05:50:20;;;;;;;;;;;;;;;2.77;56.73;102641.16;116937;1188;21845;-49
2021/11/16 05:52:49;;;;;;;;;;;;;;;2.74;56.71;102646.04;117113;1188;21976;-50
2021/11/16 05:55:26;;;;;;;;;;;;;;;2.73;56.86;102646.17;117062;1185;21843;-72
2021/11/16 05:57:56;;;;;;;;;;;;;;;2.75;56.95;102648.20;117064;1188;21966;-49
2021/11/16 06:00:26;;;;;;;;;;;;;;;2.80;56.89;102647.11;117142;1187;21929;-49
2021/11/16 06:02:54;;;;;;;;;;;;;;;2.87;56.92;102648.83;117080;1188;21839;-49
2021/11/16 06:05:23;;;;;;;;;;;;;;;2.93;57.00;102652.46;117096;1185;23443;-49
2021/11/16 06:07:52;;;;;;;;;;;;;;;2.98;57.00;102652.07;116958;1188;21841;-63
2021/11/16 06:10:20;;;;;;;;;;;;;;;3.11;57.23;102650.86;116911;1188;21850;-54
2021/11/16 06:12:52;;;;;;;;;;;;;;;3.30;57.37;102646.66;117093;1188;23462;-49
2021/11/16 06:15:22;;;;;;;;;;;;;;;3.44;57.32;102644.80;117042;1188;23653;-50
2021/11/16 06:17:51;;;;;;;;;;;;;;;3.44;57.10;102642.88;117047;1186;23561;-66
2021/11/16 06:20:21;;;;;;;;;;;;;;;3.38;56.99;102639.80;117005;1188;22929;-67
2021/11/16 06:22:49;;;;;;;;;;;;;;;3.35;57.13;102642.23;117087;1188;21832;-49
2021/11/16 06:25:18;;;;;;;;;;;;;;;3.34;56.94;102643.73;117062;1188;22912;-50
2021/11/16 06:27:46;;;;;;;;;;;;;;;3.31;56.90;102644.83;117050;1187;22163;-49
2021/11/16 06:30:16;;;;;;;;;;;;;;;3.31;57.07;102643.08;117146;1187;23436;-50
2021/11/16 06:32:44;;;;;;;;;;;;;;;3.34;57.06;102645.34;117075;1188;21849;-67
2021/11/16 06:35:18;;;;;;;;;;;;;;;3.35;57.10;102646.05;117055;1186;23520;-66
2021/11/16 06:37:47;;;;;;;;;;;;;;;3.39;57.11;102644.74;116998;1188;21847;-49
2021/11/16 06:40:16;;;;;;;;;;;;;;;3.40;57.12;102643.76;117209;1188;21843;-66
2021/11/16 06:42:44;;;;;;;;;;;;;;;3.45;57.25;102644.01;116967;1180;21846;-50
2021/11/16 06:45:13;;;;;;;;;;;;;;;3.52;57.24;102645.09;117017;1186;22932;-50
2021/11/16 06:47:42;;;;;;;;;;;;;;;3.60;57.28;102642.89;117040;1187;22999;-51
2021/11/16 06:50:11;;;;;;;;;;;;;;;3.75;57.36;102639.11;117093;1188;24227;-69
2021/11/16 06:52:39;;;;;;;;;;;;;;;3.95;57.68;102638.41;116956;1191;21844;-49
2021/11/16 06:55:08;;;;;;;;;;;;;;;4.11;57.45;102632.80;117071;1191;23496;-49
2021/11/16 06:57:36;;;;;;;;;;;;;;;4.31;57.51;102632.91;117031;1187;21846;-49
2021/11/16 07:00:05;;;;;;;;;;;;;;;4.46;57.39;102634.67;117039;1188;21851;-49
2021/11/16 07:02:35;;;;;;;;;;;;;;;4.56;57.65;102631.88;117054;1188;21843;-67
2021/11/16 07:05:10;;;;;;;;;;;;;;;4.67;57.61;102625.28;117047;1187;23551;-49
2021/11/16 07:07:44;;;;;;;;;;;;;;;4.82;57.66;102621.65;117035;1187;21895;-68
2021/11/16 07:10:15;;;;;;;;;;;;;;;4.95;57.44;102616.64;117076;1187;23476;-68
2021/11/16 07:12:53;;;;;;;;;;;;;;;5.06;57.85;102615.59;117029;1188;22691;-50
2021/11/16 07:15:22;;;;;;;;;;;;;;;5.14;57.45;102613.36;117095;1187;21862;-68
2021/11/16 07:17:50;;;;;;;;;;;;;;;5.24;57.66;102615.21;116972;1188;21903;-49
2021/11/16 07:20:19;;;;;;;;;;;;;;;5.34;57.54;102614.61;117043;1188;23440;-70
2021/11/16 07:22:47;;;;;;;;;;;;;;;5.44;57.66;102612.98;117045;1188;21835;-70
2021/11/16 07:25:16;;;;;;;;;;;;;;;5.52;57.71;102608.11;117021;1188;21845;-68
2021/11/16 07:27:45;;;;;;;;;;;;;;;5.61;57.83;102610.59;117094;1186;21995;-49
2021/11/16 07:30:28;;;;;;;;;;;;;;;5.73;57.84;102606.23;117068;1188;22901;-67
2021/11/16 07:33:00;;;;;;;;;;;;;;;5.86;57.90;102603.13;117054;1186;22974;-49
2021/11/16 07:35:32;;;;;;;;;;;;;;;5.96;57.96;102597.96;117044;1187;21835;-49
2021/11/16 07:38:01;;;;;;;;;;;;;;;6.07;57.94;102596.55;117053;1188;21888;-71
2021/11/16 07:40:32;;;;;;;;;;;;;;;6.20;57.94;102601.80;116990;1188;21889;-69
2021/11/16 07:43:01;;;;;;;;;;;;;;;6.34;57.73;102599.23;117021;1188;23439;-49
2021/11/16 07:45:30;;;;;;;;;;;;;;;6.46;57.53;102594.27;117042;1186;21835;-69
2021/11/16 07:48:12;;;;;;;;;;;;;;;6.55;57.97;102596.58;117067;1188;21854;-49
2021/11/16 07:50:56;;;;;;;;;;;;;;;6.68;57.91;102600.73;116862;1188;23508;-49
2021/11/16 07:53:27;;;;;;;;;;;;;;;6.80;58.08;102597.55;117075;1188;24163;-70
2021/11/16 07:55:55;;;;;;;;;;;;;;;6.91;58.01;102595.70;117084;1188;23002;-70
2021/11/16 07:58:24;;;;;;;;;;;;;;;7.03;58.01;102593.69;117001;1188;21972;-71
2021/11/16 08:00:52;;;;;;;;;;;;;;;7.15;58.52;102601.81;117060;1188;23563;-49
2021/11/16 08:03:23;;;;;;;;;;;;;;;7.25;58.16;102604.13;117069;1187;23459;-49
2021/11/16 08:06:09;;;;;;;;;;;;;;;7.35;58.19;102606.05;117054;1186;21832;-50
2021/11/16 08:13:54;;;;;;;;;;;;;;;7.71;58.12;102607.02;117011;1188;21836;-49
2021/11/16 08:16:22;;;;;;;;;;;;;;;7.87;58.04;102601.79;117032;1188;22927;-50
2021/11/16 08:18:59;;;;;;;;;;;;;;;8.01;58.37;102596.82;117105;1187;21864;-72
2021/11/16 08:21:28;;;;;;;;;;;;;;;8.15;58.20;102603.77;116944;1189;21852;-65
2021/11/16 08:23:57;;;;;;;;;;;;;;;8.25;58.08;102603.05;117039;1188;21844;-69
2021/11/16 08:26:27;;;;;;;;;;;;;;;8.30;58.06;102606.87;117077;1188;21847;-70
2021/11/16 08:28:55;;;;;;;;;;;;;;;8.24;57.84;102610.52;117054;1188;21846;-65
2021/11/16 08:31:23;;;;;;;;;;;;;;;8.19;57.71;102610.21;117070;1188;21834;-72
2021/11/16 08:33:52;;;;;;;;;;;;;;;8.22;57.94;102611.52;117006;1188;21912;-73
2021/11/16 08:36:25;;;;;;;;;;;;;;;8.26;57.96;102613.23;117068;1186;24160;-69
2021/11/16 08:38:54;;;;;;;;;;;;;;;8.34;58.04;102603.52;117044;1187;21854;-51
2021/11/16 08:41:23;;;;;;;;;;;;;;;8.51;58.28;102597.08;117040;1188;23439;-68
2021/11/16 08:43:51;;;;;;;;;;;;;;;8.69;58.33;102594.31;117039;1186;23511;-70
2021/11/16 08:46:19;;;;;;;;;;;;;;;8.90;58.16;102589.00;116969;1188;23443;-69
2021/11/16 08:48:51;;;;;;;;;;;;;;;9.11;58.37;102585.94;116997;1188;21846;-50
2021/11/16 08:51:19;;;;;;;;;;;;;;;9.34;58.36;102579.40;117000;1187;21837;-69
2021/11/16 08:53:47;;;;;;;;;;;;;;;9.55;58.31;102576.48;117022;1188;21846;-69
2021/11/16 08:56:16;;;;;;;;;;;;;;;9.75;58.39;102575.24;116964;1188;21834;-69
2021/11/16 08:59:14;;;;;;;;;;;;;;;9.93;58.36;102570.98;116962;1188;23650;-50
2021/11/16 09:02:16;;;;;;;;;;;;;;;10.13;58.58;102569.56;117040;1189;21852;-51
2021/11/16 09:04:44;;;;;;;;;;;;;;;10.35;58.39;102567.63;116943;1188;23457;-70
2021/11/16 09:07:20;;;;;;;;;;;;;;;10.40;58.47;102562.67;116931;1188;21974;-70
2021/11/16 09:10:14;;;;;;;;;;;;;;;10.56;58.35;102557.79;116910;1188;21935;-49
2021/11/16 09:12:49;;;;;;;;;;;;;;;10.77;58.39;102552.98;116897;1188;23441;-71
2021/11/16 09:15:21;;;;;;;;;;;;;;;10.94;58.29;102547.73;116907;1188;21846;-50
2021/11/16 09:17:49;;;;;;;;;;;;;;;11.11;58.31;102542.26;116978;1188;23529;-69
2021/11/16 09:20:22;;;;;;;;;;;;;;;11.26;58.49;102533.59;116917;1188;21980;-69
2021/11/16 09:22:52;;;;;;;;;;;;;;;11.44;58.58;102528.84;116935;1188;21847;-70
2021/11/16 09:25:31;;;;;;;;;;;;;;;11.55;58.47;102525.52;116899;1188;21976;-70
2021/11/16 09:28:11;;;;;;;;;;;;;;;11.67;58.41;102519.05;116931;1188;23565;-51
2021/11/16 09:30:41;;;;;;;;;;;;;;;11.81;58.45;102518.40;116959;1188;21859;-50
2021/11/16 09:33:16;;;;;;;;;;;;;;;11.97;58.35;102514.27;116878;1188;22944;-52
2021/11/16 09:35:56;;;;;;;;;;;;;;;12.17;57.83;102508.96;117078;1188;21851;-75
2021/11/16 09:38:35;;;;;;;;;;;;;;;12.26;57.75;102516.15;117013;1187;23473;-51
2021/11/16 09:41:03;;;;;;;;;;;;;;;12.52;57.77;102516.51;117060;1188;21859;-50
2021/11/16 09:43:31;;;;;;;;;;;;;;;12.59;57.59;102509.05;117072;1188;23452;-74
2021/11/16 09:46:10;;;;;;;;;;;;;;;12.66;57.20;102505.77;117027;1187;23542;-72
2021/11/16 09:48:39;;;;;;;;;;;;;;;12.76;57.29;102502.74;117049;1188;23453;-50
2021/11/16 09:51:15;;;;;;;;;;;;;;;12.86;57.26;102499.33;117108;1188;22902;-75
2021/11/16 09:53:43;;;;;;;;;;;;;;;12.97;57.20;102495.95;117060;1188;21850;-50
2021/11/16 09:56:21;;;;;;;;;;;;;;;13.05;57.31;102494.45;117062;1188;21964;-50
2021/11/16 09:58:51;;;;;;;;;;;;;;;13.10;56.89;102494.33;117033;1188;23518;-71
2021/11/16 10:01:20;;;;;;;;;;;;;;;13.05;56.88;102497.27;117028;1186;23439;-50
2021/11/16 10:03:52;;;;;;;;;;;;;;;13.09;56.91;102490.43;117026;1186;21836;-50
2021/11/16 10:06:20;;;;;;;;;;;;;;;13.00;57.06;102490.68;117045;1192;21847;-51
2021/11/16 10:08:51;;;;;;;;;;;;;;;12.87;57.24;102487.90;117044;1186;22727;-51
2021/11/16 10:11:20;;;;;;;;;;;;;;;12.93;57.39;102480.56;116982;1186;22622;-75
2021/11/16 10:13:48;;;;;;;;;;;;;;;13.05;57.58;102477.17;117007;1188;22101;-50
2021/11/16 10:16:16;;;;;;;;;;;;;;;13.16;57.44;102475.37;117036;1188;23440;-51
2021/11/16 10:18:45;;;;;;;;;;;;;;;13.26;57.50;102476.88;117033;1188;23443;-69
2021/11/16 10:21:15;;;;;;;;;;;;;;;13.42;57.61;102468.05;116985;1185;23437;-67
2021/11/16 10:23:46;;;;;;;;;;;;;;;13.67;57.41;102463.16;119055;1186;21775;-71
2021/11/16 10:26:14;;;;;;;;;;;;;;;13.70;57.54;102462.31;118193;1188;22930;-62
2021/11/16 10:28:44;;;;;;;;;;;;;;;13.68;57.85;102466.70;117069;1187;23470;-70
2021/11/16 10:31:12;;;;;;;;;;;;;;;13.84;57.90;102463.12;117106;1188;21977;-69
2021/11/16 10:33:41;;;;;;;;;;;;;;;14.02;57.79;102456.71;117039;1187;21858;-70
2021/11/16 10:36:13;;;;;;;;;;;;;;;14.16;57.48;102455.55;117051;1191;22929;-58
2021/11/16 10:38:45;;;;;;;;;;;;;;;14.20;57.42;102450.63;117035;1186;23475;-70
2021/11/16 10:41:14;;;;;;;;;;;;;;;14.26;57.42;102444.50;117014;1189;21863;-70
2021/11/16 10:43:43;;;;;;;;;;;;;;;14.30;57.33;102444.16;117065;1189;21828;-72
2021/11/16 10:46:11;;;;;;;;;;;;;;;14.38;57.36;102442.44;117057;1188;23064;-72
2021/11/16 10:48:39;;;;;;;;;;;;;;;14.47;57.18;102443.18;117003;1182;21836;-52
2021/11/16 10:51:08;;;;;;;;;;;;;;;14.52;57.20;102438.27;117125;1188;23449;-51
2021/11/16 10:53:38;;;;;;;;;;;;;;;14.57;57.23;102436.69;117035;1185;23440;-52
2021/11/16 10:56:07;;;;;;;;;;;;;;;14.65;57.20;102429.11;117081;1189;22957;-70
2021/11/16 10:58:40;;;;;;;;;;;;;;;14.62;57.04;102424.69;117007;1188;21842;-69
2021/11/16 11:01:10;;;;;;;;;;;;;;;14.66;57.14;102419.04;117139;1187;21829;-69
2021/11/16 11:03:42;;;;;;;;;;;;;;;14.70;57.13;102414.15;117041;1188;21830;-52
2021/11/16 11:06:14;;;;;;;;;;;;;;;14.71;57.00;102415.75;117027;1188;22955;-52
2021/11/16 11:08:45;;;;;;;;;;;;;;;14.74;56.97;102416.81;117038;1185;22638;-70
2021/11/16 11:11:15;;;;;;;;;;;;;;;14.76;56.96;102409.94;117041;1187;22939;-68
2021/11/16 11:13:58;;;;;;;;;;;;;;;14.74;56.97;102409.23;117019;1187;23439;-68
2021/11/16 11:16:26;;;;;;;;;;;;;;;14.76;56.92;102404.29;117005;1189;21846;-69
2021/11/16 11:18:55;;;;;;;;;;;;;;;14.82;57.03;102408.52;117043;1186;21835;-71
2021/11/16 11:21:28;;;;;;;;;;;;;;;14.90;57.11;102408.54;117044;1186;23665;-52
2021/11/16 11:23:59;;;;;;;;;;;;;;;14.97;56.94;102400.61;117052;1188;21846;-67
2021/11/16 11:31:45;;;;;;;;;;;;;;;14.99;56.72;102400.43;117025;1189;23440;-70
2021/11/16 11:34:14;;;;;;;;;;;;;;;14.97;56.74;102400.96;117074;1189;23437;-52
2021/11/16 11:36:42;;;;;;;;;;;;;;;14.94;56.64;102401.13;117061;1187;21847;-70
2021/11/16 11:39:17;;;;;;;;;;;;;;;14.87;56.62;102401.29;117040;1188;21904;-51
2021/11/16 11:41:56;;;;;;;;;;;;;;;14.81;56.61;102399.67;117014;1186;23446;-75
2021/11/16 11:44:25;;;;;;;;;;;;;;;14.73;56.37;102395.43;117040;1189;21847;-51
2021/11/16 11:46:57;;;;;;;;;;;;;;;14.56;56.18;102393.58;117045;1189;21868;-69
2021/11/16 11:49:25;;;;;;;;;;;;;;;14.34;55.97;102389.96;117003;1189;21985;-73
2021/11/16 11:51:55;;;;;;;;;;;;;;;14.04;55.73;102382.93;117038;1187;21835;-52
2021/11/16 11:54:23;;;;;;;;;;;;;;;13.86;56.05;102377.54;117019;1186;21835;-70
2021/11/16 11:56:51;;;;;;;;;;;;;;;13.84;56.36;102373.83;117073;1186;23520;-51
2021/11/16 11:59:21;;;;;;;;;;;;;;;13.82;56.37;102371.00;117101;1188;22162;-71
2021/11/16 12:01:49;;;;;;;;;;;;;;;13.82;56.36;102368.35;117036;1189;21832;-71
2021/11/16 12:04:18;;;;;;;;;;;;;;;13.79;56.30;102368.33;117079;1189;22967;-71
2021/11/16 12:06:47;;;;;;;;;;;;;;;13.76;56.27;102361.60;117056;1191;21856;-69
2021/11/16 12:09:16;;;;;;;;;;;;;;;13.77;56.39;102360.02;117015;1186;21853;-71
2021/11/16 12:11:44;;;;;;;;;;;;;;;13.80;56.51;102356.52;117049;1186;23371;-51
2021/11/16 12:14:42;;;;;;;;;;;;;;;13.89;56.65;102353.05;117070;1187;22910;-70
2021/11/16 12:17:13;;;;;;;;;;;;;;;14.02;56.64;102346.92;116823;1187;23009;-52
2021/11/16 12:19:43;;;;;;;;;;;;;;;14.11;56.61;102340.08;117081;1186;22717;-51
2021/11/16 12:22:12;;;;;;;;;;;;;;;14.17;56.52;102334.80;117038;1189;21928;-58
2021/11/16 12:24:41;;;;;;;;;;;;;;;14.22;56.58;102335.71;117069;1188;21857;-70
2021/11/16 12:27:09;;;;;;;;;;;;;;;14.27;56.57;102334.66;117038;1189;21844;-51
2021/11/16 12:29:41;;;;;;;;;;;;;;;14.31;56.47;102332.39;117041;1189;21846;-51
2021/11/16 12:32:11;;;;;;;;;;;;;;;14.34;56.43;102327.11;117037;1188;21868;-50
2021/11/16 12:34:41;;;;;;;;;;;;;;;14.35;56.28;102324.64;117040;1186;22947;-51
2021/11/16 12:37:10;;;;;;;;;;;;;;;14.36;56.22;102321.45;117041;1186;21844;-51
2021/11/16 12:39:54;;;;;;;;;;;;;;;14.35;56.20;102316.69;117034;1186;21858;-67
2021/11/16 12:42:23;;;;;;;;;;;;;;;14.34;56.22;102316.69;117063;1185;21910;-53
2021/11/16 12:44:57;;;;;;;;;;;;;;;14.35;56.23;102315.80;117058;1186;22833;-67
2021/11/16 12:47:25;;;;;;;;;;;;;;;14.33;56.05;102311.73;116959;1189;21860;-52
2021/11/16 12:50:06;;;;;;;;;;;;;;;14.30;56.11;102311.21;119067;1187;22304;-67
2021/11/16 12:52:40;;;;;;;;;;;;;;;14.25;56.08;102307.30;116996;1186;21833;-52
2021/11/16 12:55:19;;;;;;;;;;;;;;;14.20;55.92;102309.57;117040;1186;21882;-52
2021/11/16 12:57:48;;;;;;;;;;;;;;;14.16;55.91;102313.27;117087;1189;22637;-66
2021/11/16 13:00:17;;;;;;;;;;;;;;;14.08;55.90;102309.36;117011;1186;21841;-69
2021/11/16 13:02:47;;;;;;;;;;;;;;;13.96;55.78;102308.41;117086;1186;21911;-51
2021/11/16 13:05:33;;;;;;;;;;;;;;;13.84;55.69;102313.13;117039;1189;21883;-52
2021/11/16 13:08:02;;;;;;;;;;;;;;;13.72;55.67;102310.41;117067;1185;23082;-52
2021/11/16 13:10:31;;;;;;;;;;;;;;;13.61;55.66;102311.77;117025;1186;21842;-51
2021/11/16 13:13:03;;;;;;;;;;;;;;;13.49;55.55;102309.05;117048;1183;23466;-50
2021/11/16 13:15:32;;;;;;;;;;;;;;;13.38;55.49;102311.78;117011;1187;21844;-66
2021/11/16 13:18:05;;;;;;;;;;;;;;;13.29;55.64;102309.39;117032;1188;23001;-50
2021/11/16 13:20:34;;;;;;;;;;;;;;;13.20;55.62;102308.29;116994;1188;22985;-51
2021/11/16 13:23:16;;;;;;;;;;;;;;;13.08;55.40;102308.02;117027;1191;21851;-50
2021/11/16 13:25:59;;;;;;;;;;;;;;;12.95;55.34;102304.57;117016;1189;21841;-55
2021/11/16 13:29:20;;;;;;;;;;;;;;;12.80;55.48;102306.02;117015;1186;23468;-67
2021/11/16 13:31:17;;;;;;;;;;;;;;;12.66;55.51;102300.77;117006;1188;22957;-55
2021/11/16 13:33:45;;;;;;;;;;;;;;;12.54;55.50;102301.36;117176;1188;23476;-64
2021/11/16 13:36:16;;;;;;;;;;;;;;;12.40;55.33;102295.05;117079;1186;21863;-52
2021/11/16 13:38:57;;;;;;;;;;;;;;;12.22;55.16;102293.43;116980;1186;21913;-66
2021/11/16 13:41:44;;;;;;;;;;;;;;;12.04;55.28;102286.19;116949;1188;22325;-65
2021/11/16 13:44:21;;;;;;;;;;;;;;;11.88;55.14;102280.69;117059;1186;23455;-65
2021/11/16 13:46:52;;;;;;;;;;;;;;;11.72;55.11;102281.36;116967;1189;21871;-64